createdAt,value
2023-05-10T00:01:08.621Z,100278.84
2023-05-10T00:04:11.542Z,100282.38
2023-05-10T00:07:14.080Z,100276.31
2023-05-10T00:10:17.104Z,100268.25
2023-05-10T00:13:19.878Z,100271.81
2023-05-10T00:16:22.857Z,100270.19
2023-05-10T00:19:25.491Z,100274.66
2023-05-10T00:22:28.198Z,100268.53
2023-05-10T00:25:31.569Z,100261.37
2023-05-10T00:28:34.355Z,100260.50
2023-05-10T00:31:37.026Z,100265.97
2023-05-10T00:34:39.861Z,100263.31
2023-05-10T00:37:42.580Z,100260.56
2023-05-10T00:40:45.443Z,100249.00
2023-05-10T00:43:49.363Z,100253.63
2023-05-10T00:46:52.186Z,100250.03
2023-05-10T00:53:00.770Z,100251.91
2023-05-10T00:56:04.317Z,100246.50
2023-05-10T00:59:07.218Z,100243.84
2023-05-10T01:02:10.753Z,100246.63
2023-05-10T01:05:15.200Z,100238.62
2023-05-10T01:08:18.328Z,100233.25
2023-05-10T01:11:20.868Z,100229.75
2023-05-10T01:14:24.172Z,100226.25
2023-05-10T01:17:26.869Z,100219.13
2023-05-10T01:20:37.578Z,100219.13
2023-05-10T01:24:14.148Z,100218.22
2023-05-10T01:27:29.315Z,100220.06
2023-05-10T01:31:03.890Z,100212.03
2023-05-10T01:34:21.192Z,100212.16
2023-05-10T01:37:32.037Z,100212.16
2023-05-10T01:40:43.411Z,100209.56
2023-05-10T01:44:00.349Z,100210.37
2023-05-10T01:47:11.308Z,100208.62
2023-05-10T01:50:21.096Z,100208.62
2023-05-10T01:53:24.939Z,100212.28
2023-05-10T01:56:29.407Z,100213.22
2023-05-10T01:59:41.915Z,100198.84
2023-05-10T02:02:48.864Z,100207.94
2023-05-10T02:05:53.382Z,100210.66
2023-05-10T02:08:58.381Z,100200.75
2023-05-10T02:12:04.374Z,100200.78
2023-05-10T02:15:09.051Z,100198.09
2023-05-10T02:18:13.528Z,100194.59
2023-05-10T02:21:16.605Z,100194.59
2023-05-10T02:24:19.952Z,100192.91
2023-05-10T02:27:23.186Z,100193.81
2023-05-10T02:30:26.150Z,100196.56
2023-05-10T02:33:29.989Z,100197.47
2023-05-10T02:36:33.304Z,100189.44
2023-05-10T02:39:36.091Z,100196.63
2023-05-10T02:42:43.231Z,100197.50
2023-05-10T02:45:48.333Z,100198.41
2023-05-10T02:48:51.220Z,100198.41
2023-05-10T02:51:57.879Z,100201.09
2023-05-10T02:55:03.265Z,100202.91
2023-05-10T02:58:05.982Z,100200.25
2023-05-10T03:01:09.044Z,100190.34
2023-05-10T03:04:11.819Z,100201.09
2023-05-10T03:07:14.756Z,100201.16
2023-05-10T03:10:18.726Z,100202.16
2023-05-10T03:13:46.147Z,100201.25
2023-05-10T03:16:56.256Z,100200.38
2023-05-10T03:20:04.873Z,100201.31
2023-05-10T03:23:21.209Z,100203.97
2023-05-10T03:26:28.516Z,100202.25
2023-05-10T03:29:33.078Z,100206.72
2023-05-10T03:32:35.982Z,100204.03
2023-05-10T03:35:38.484Z,100202.22
2023-05-10T03:38:42.134Z,100204.94
2023-05-10T03:41:44.680Z,100198.66
2023-05-10T03:44:47.624Z,100202.22
2023-05-10T03:47:50.162Z,100214.72
2023-05-10T03:50:53.127Z,100217.34
2023-05-10T03:53:56.583Z,100216.47
2023-05-10T03:56:59.718Z,100216.44
2023-05-10T04:00:04.568Z,100220.84
2023-05-10T04:03:16.971Z,100221.69
2023-05-10T04:06:19.918Z,100240.44
2023-05-10T04:09:23.343Z,100243.03
2023-05-10T04:12:26.209Z,100230.37
2023-05-10T04:15:28.851Z,100230.34
2023-05-10T04:18:32.290Z,100228.47
2023-05-10T04:21:34.784Z,100231.91
2023-05-10T04:24:37.549Z,100239.78
2023-05-10T04:27:40.082Z,100244.22
2023-05-10T04:30:43.025Z,100242.38
2023-05-10T04:33:45.599Z,100248.06
2023-05-10T04:36:48.344Z,100251.13
2023-05-10T04:39:51.811Z,100243.94
2023-05-10T04:42:54.533Z,100247.84
2023-05-10T04:45:59.899Z,100250.72
2023-05-10T04:49:02.714Z,100251.72
2023-05-10T04:52:25.154Z,100259.81
2023-05-10T04:55:28.028Z,100257.06
2023-05-10T04:58:31.323Z,100260.59
2023-05-10T05:01:34.225Z,100251.53
2023-05-10T05:04:36.768Z,100252.34
2023-05-10T05:07:39.838Z,100247.78
2023-05-10T05:13:47.755Z,100252.56
2023-05-10T05:16:53.023Z,100259.53
2023-05-10T05:19:55.882Z,100255.47
2023-05-10T05:22:58.421Z,100260.66
2023-05-10T05:26:01.118Z,100253.66
2023-05-10T05:29:03.975Z,100260.63
2023-05-10T05:32:06.833Z,100250.84
2023-05-10T05:35:11.205Z,100261.31
2023-05-10T05:38:14.056Z,100259.50
2023-05-10T05:41:16.550Z,100275.38
2023-05-10T05:44:19.406Z,100263.78
2023-05-10T05:47:22.082Z,100270.13
2023-05-10T05:50:24.931Z,100276.47
2023-05-10T05:53:27.571Z,100277.22
2023-05-10T05:56:30.339Z,100264.50
2023-05-10T05:59:32.938Z,100271.25
2023-05-10T06:02:35.857Z,100265.00
2023-05-10T06:05:38.879Z,100242.66
2023-05-10T06:08:42.265Z,100269.12
2023-05-10T06:11:47.671Z,100270.09
2023-05-10T06:14:52.801Z,100275.31
2023-05-10T06:17:58.600Z,100281.16
2023-05-10T06:21:03.931Z,100267.53
2023-05-10T06:24:07.706Z,100271.88
2023-05-10T06:27:10.237Z,100269.50
2023-05-10T06:30:14.457Z,100284.63
2023-05-10T06:33:17.108Z,100281.66
2023-05-10T06:36:19.960Z,100283.19
2023-05-10T06:39:22.469Z,100289.44
2023-05-10T06:42:26.486Z,100281.28
2023-05-10T06:45:28.966Z,100281.16
2023-05-10T06:48:31.972Z,100288.44
2023-05-10T06:51:34.505Z,100288.09
2023-05-10T06:54:57.171Z,100286.91
2023-05-10T06:57:59.647Z,100286.16
2023-05-10T07:01:08.448Z,100287.03
2023-05-10T07:04:11.321Z,100282.94
2023-05-10T07:07:15.080Z,100290.38
2023-05-10T07:10:17.613Z,100281.03
2023-05-10T07:13:20.688Z,100289.16
2023-05-10T07:16:23.283Z,100291.87
2023-05-10T07:19:26.431Z,100278.31
2023-05-10T07:22:28.885Z,100285.41
2023-05-10T07:25:32.025Z,100267.97
2023-05-10T07:28:34.528Z,100280.91
2023-05-10T07:31:37.378Z,100277.31
2023-05-10T07:34:39.859Z,100272.50
2023-05-10T07:37:42.661Z,100268.00
2023-05-10T07:40:45.101Z,100260.81
2023-05-10T07:43:47.900Z,100257.56
2023-05-10T07:46:50.705Z,100273.63
2023-05-10T07:49:53.546Z,100257.66
2023-05-10T07:52:56.161Z,100263.66
2023-05-10T07:55:59.475Z,100262.25
2023-05-10T07:59:04.759Z,100267.56
2023-05-10T08:02:07.636Z,100268.75
2023-05-10T08:05:10.591Z,100255.34
2023-05-10T08:08:13.437Z,100264.44
2023-05-10T08:11:19.762Z,100269.22
2023-05-10T08:14:22.252Z,100266.59
2023-05-10T08:17:24.971Z,100264.81
2023-05-10T08:20:27.563Z,100269.84
2023-05-10T08:23:30.260Z,100269.22
2023-05-10T08:26:33.577Z,100280.47
2023-05-10T08:29:48.791Z,100274.56
2023-05-10T08:32:52.754Z,100263.56
2023-05-10T08:35:55.521Z,100264.28
2023-05-10T08:38:58.013Z,100279.56
2023-05-10T08:42:03.136Z,100262.06
2023-05-10T08:45:08.339Z,100278.53
2023-05-10T08:48:11.833Z,100273.66
2023-05-10T08:51:23.158Z,100270.22
2023-05-10T08:54:26.160Z,100271.91
2023-05-10T08:57:28.936Z,100264.31
2023-05-10T09:00:31.821Z,100262.44
2023-05-10T09:03:36.421Z,100269.03
2023-05-10T09:06:39.472Z,100243.25
2023-05-10T09:09:43.552Z,100251.22
2023-05-10T09:12:46.543Z,100264.41
2023-05-10T09:15:49.451Z,100251.00
2023-05-10T09:18:52.274Z,100255.19
2023-05-10T09:21:56.888Z,100251.44
2023-05-10T09:25:10.584Z,100241.25
2023-05-10T09:28:13.342Z,100240.94
2023-05-10T09:31:16.179Z,100235.62
2023-05-10T09:34:20.974Z,100228.19
2023-05-10T09:37:30.733Z,100247.53
2023-05-10T09:40:33.489Z,100240.06
2023-05-10T09:43:39.338Z,100239.22
2023-05-10T09:46:42.571Z,100240.37
2023-05-10T09:49:45.578Z,100226.53
2023-05-10T09:53:00.158Z,100242.53
2023-05-10T09:56:03.082Z,100231.53
2023-05-10T09:59:06.565Z,100216.31
2023-05-10T10:02:09.387Z,100228.84
2023-05-10T10:05:12.706Z,100220.41
2023-05-10T10:08:16.243Z,100214.00
2023-05-10T10:11:19.860Z,100206.09
2023-05-10T10:14:23.856Z,100215.28
2023-05-10T10:17:29.142Z,100219.47
2023-05-10T10:20:31.607Z,100205.53
2023-05-10T10:23:34.371Z,100213.84
2023-05-10T10:26:39.309Z,100217.31
2023-05-10T10:30:14.154Z,100215.50
2023-05-10T10:33:35.483Z,100209.94
2023-05-10T10:36:46.485Z,100206.16
2023-05-10T10:39:52.119Z,100205.69
2023-05-10T10:42:56.224Z,100204.09
2023-05-10T10:46:14.019Z,100193.03
2023-05-10T10:49:18.469Z,100199.53
2023-05-10T10:52:29.100Z,100194.72
2023-05-10T10:55:32.206Z,100206.56
2023-05-10T10:58:35.417Z,100188.47
2023-05-10T11:01:43.727Z,100197.97
2023-05-10T11:04:47.768Z,100193.28
2023-05-10T11:07:57.974Z,100188.53
2023-05-10T11:11:00.331Z,100191.03
2023-05-10T11:14:05.981Z,100205.97
2023-05-10T11:17:30.246Z,100193.03
2023-05-10T11:20:41.911Z,100203.41
2023-05-10T11:23:44.594Z,100190.47
2023-05-10T11:26:47.487Z,100193.09
2023-05-10T11:29:52.825Z,100185.50
2023-05-10T11:32:56.457Z,100187.53
2023-05-10T11:35:58.886Z,100184.38
2023-05-10T11:39:01.696Z,100175.31
2023-05-10T11:42:04.523Z,100166.63
2023-05-10T11:45:08.998Z,100165.47
2023-05-10T11:48:11.584Z,100177.41
2023-05-10T11:51:14.390Z,100166.06
2023-05-10T11:54:16.851Z,100163.22
2023-05-10T11:57:21.272Z,100162.91
2023-05-10T12:00:23.802Z,100188.16
2023-05-10T12:03:27.252Z,100164.16
2023-05-10T12:06:32.830Z,100156.22
2023-05-10T12:09:43.729Z,100163.75
2023-05-10T12:12:50.628Z,100166.00
2023-05-10T12:15:53.544Z,100172.03
2023-05-10T12:19:01.121Z,100152.81
2023-05-10T12:22:06.460Z,100153.69
2023-05-10T12:25:11.928Z,100150.00
2023-05-10T12:28:14.713Z,100152.34
2023-05-10T12:31:17.665Z,100153.22
2023-05-10T12:34:47.590Z,100159.63
2023-05-10T12:37:50.044Z,100157.91
2023-05-10T12:40:53.031Z,100142.84
2023-05-10T12:43:55.498Z,100138.34
2023-05-10T12:46:58.275Z,100138.97
2023-05-10T12:50:02.445Z,100139.72
2023-05-10T12:53:05.351Z,100132.41
2023-05-10T12:56:08.125Z,100131.25
2023-05-10T12:59:11.014Z,100133.34
2023-05-10T13:02:14.052Z,100127.56
2023-05-10T13:05:16.860Z,100133.13
2023-05-10T13:08:19.360Z,100126.94
2023-05-10T13:11:22.599Z,100124.00
2023-05-10T13:14:25.484Z,100127.94
2023-05-10T13:17:28.351Z,100128.06
2023-05-10T13:20:30.780Z,100130.72
2023-05-10T13:23:33.480Z,100105.97
2023-05-10T13:26:37.289Z,100120.72
2023-05-10T13:29:40.278Z,100109.34
2023-05-10T13:32:42.772Z,100109.31
2023-05-10T13:35:46.224Z,100115.06
2023-05-10T13:38:48.628Z,100103.78
2023-05-10T13:41:52.049Z,100099.13
2023-05-10T13:44:55.852Z,100097.59
2023-05-10T13:47:58.598Z,100101.56
2023-05-10T13:51:01.055Z,100092.97
2023-05-10T13:54:04.671Z,100103.00
2023-05-10T13:57:07.658Z,100091.06
2023-05-10T14:03:14.714Z,100086.44
2023-05-10T14:06:17.186Z,100085.31
2023-05-10T14:09:20.330Z,100077.19
2023-05-10T14:12:22.757Z,100083.94
2023-05-10T14:15:25.511Z,100091.34
2023-05-10T14:21:31.894Z,100081.09
2023-05-10T14:27:38.065Z,100084.72
2023-05-10T14:30:40.578Z,100087.97
2023-05-10T14:33:43.914Z,100085.47
2023-05-10T14:36:46.460Z,100083.03
2023-05-10T14:39:49.271Z,100076.50
2023-05-10T14:42:53.326Z,100076.00
2023-05-10T14:45:56.071Z,100066.16
2023-05-10T14:48:59.708Z,100069.88
2023-05-10T14:52:02.615Z,100072.34
2023-05-10T14:55:23.804Z,100087.44
2023-05-10T14:58:26.712Z,100075.06
2023-05-10T15:01:29.657Z,100077.06
2023-05-10T15:04:33.236Z,100073.06
2023-05-10T15:07:36.133Z,100070.16
2023-05-10T15:10:39.561Z,100071.94
2023-05-10T15:16:45.584Z,100064.53
2023-05-10T15:19:48.093Z,100071.44
2023-05-10T15:22:50.827Z,100075.47
2023-05-10T15:25:56.541Z,100068.81
2023-05-10T15:28:59.551Z,100068.81
2023-05-10T15:32:02.874Z,100071.37
2023-05-10T15:35:06.371Z,100072.03
2023-05-10T15:38:10.602Z,100074.00
2023-05-10T15:41:13.307Z,100069.69
2023-05-10T15:44:15.831Z,100066.31
2023-05-10T15:47:18.593Z,100060.53
2023-05-10T15:50:21.067Z,100062.28
2023-05-10T15:53:23.847Z,100062.38
2023-05-10T15:56:26.753Z,100062.53
2023-05-10T15:59:29.530Z,100068.41
2023-05-10T16:02:32.564Z,100060.69
2023-05-10T16:05:35.551Z,100060.75
2023-05-10T16:08:38.110Z,100063.63
2023-05-10T16:11:40.869Z,100055.59
2023-05-10T16:14:43.364Z,100058.69
2023-05-10T16:17:46.408Z,100056.16
2023-05-10T16:20:49.267Z,100054.94
2023-05-10T16:23:52.006Z,100054.50
2023-05-10T16:26:54.436Z,100063.75
2023-05-10T16:29:57.167Z,100064.28
2023-05-10T16:33:00.970Z,100055.16
2023-05-10T16:36:04.924Z,100062.16
2023-05-10T16:39:09.113Z,100059.41
2023-05-10T16:42:11.809Z,100063.94
2023-05-10T16:45:14.396Z,100064.31
2023-05-10T16:48:17.298Z,100072.22
2023-05-10T16:54:23.614Z,100074.03
2023-05-10T16:57:26.273Z,100079.84
2023-05-10T17:00:30.334Z,100080.16
2023-05-10T17:03:36.819Z,100080.66
2023-05-10T17:06:40.200Z,100084.56
2023-05-10T17:09:43.853Z,100085.66
2023-05-10T17:12:46.894Z,100091.19
2023-05-10T17:15:49.409Z,100087.56
2023-05-10T17:18:53.255Z,100089.69
2023-05-10T17:21:55.882Z,100098.03
2023-05-10T17:24:58.613Z,100101.28
2023-05-10T17:28:01.303Z,100098.09
2023-05-10T17:31:04.215Z,100097.63
2023-05-10T17:34:06.796Z,100103.62
2023-05-10T17:37:10.587Z,100117.31
2023-05-10T17:40:13.095Z,100109.16
2023-05-10T17:43:15.842Z,100109.62
2023-05-10T17:46:18.532Z,100112.41
2023-05-10T17:49:21.366Z,100111.22
2023-05-10T17:52:23.807Z,100116.22
2023-05-10T17:55:27.197Z,100119.44
2023-05-10T17:58:30.402Z,100112.31
2023-05-10T18:01:33.295Z,100118.66
2023-05-10T18:04:36.262Z,100120.50
2023-05-10T18:07:39.679Z,100117.25
2023-05-10T18:10:42.470Z,100124.75
2023-05-10T18:13:44.912Z,100124.97
2023-05-10T18:16:47.779Z,100132.37
2023-05-10T18:19:50.283Z,100137.75
2023-05-10T18:22:53.013Z,100131.44
2023-05-10T18:25:55.507Z,100125.25
2023-05-10T18:29:01.374Z,100138.25
2023-05-10T18:32:04.450Z,100145.53
2023-05-10T18:35:08.302Z,100146.69
2023-05-10T18:38:10.991Z,100150.78
2023-05-10T18:41:15.591Z,100149.88
2023-05-10T18:44:19.058Z,100158.19
2023-05-10T18:47:23.743Z,100160.97
2023-05-10T18:50:26.413Z,100156.75
2023-05-10T18:53:29.390Z,100162.72
2023-05-10T18:56:31.847Z,100167.66
2023-05-10T18:59:34.804Z,100170.53
2023-05-10T19:02:38.793Z,100167.94
2023-05-10T19:05:41.700Z,100176.00
2023-05-10T19:08:44.453Z,100179.81
2023-05-10T19:11:47.447Z,100176.69
2023-05-10T19:14:50.094Z,100185.00
2023-05-10T19:17:53.163Z,100181.16
2023-05-10T19:20:56.558Z,100195.56
2023-05-10T19:24:01.352Z,100182.56
2023-05-10T19:27:04.370Z,100196.78
2023-05-10T19:30:08.219Z,100193.34
2023-05-10T19:33:12.570Z,100200.44
2023-05-10T19:36:15.532Z,100202.03
2023-05-10T19:39:18.217Z,100198.91
2023-05-10T19:42:21.274Z,100204.69
2023-05-10T19:45:23.892Z,100205.53
2023-05-10T19:48:27.023Z,100209.91
2023-05-10T19:51:29.781Z,100209.97
2023-05-10T19:54:32.654Z,100208.88
2023-05-10T19:57:35.567Z,100208.66
2023-05-10T20:00:38.361Z,100213.97
2023-05-10T20:03:41.131Z,100212.09
2023-05-10T20:06:43.891Z,100216.63
2023-05-10T20:09:46.829Z,100211.31
2023-05-10T20:12:53.251Z,100213.91
2023-05-10T20:15:59.769Z,100224.81
2023-05-10T20:19:04.688Z,100218.12
2023-05-10T20:22:09.372Z,100217.06
2023-05-10T20:25:12.166Z,100218.56
2023-05-10T20:31:19.033Z,100222.22
2023-05-10T20:34:22.003Z,100230.34
2023-05-10T20:37:24.547Z,100240.47
2023-05-10T20:40:27.575Z,100237.16
2023-05-10T20:43:30.045Z,100237.25
2023-05-10T20:46:34.713Z,100233.87
2023-05-10T20:49:38.038Z,100235.66
2023-05-10T20:52:40.739Z,100243.81
2023-05-10T20:55:43.184Z,100231.97
2023-05-10T20:58:45.939Z,100233.03
2023-05-10T21:01:48.383Z,100235.09
2023-05-10T21:04:52.005Z,100226.94
2023-05-10T21:07:56.204Z,100227.13
2023-05-10T21:14:04.920Z,100226.53
2023-05-10T21:17:07.606Z,100233.22
2023-05-10T21:20:10.707Z,100227.09
2023-05-10T21:23:13.752Z,100219.97
2023-05-10T21:26:17.830Z,100220.91
2023-05-10T21:29:20.658Z,100219.13
2023-05-10T21:32:23.143Z,100220.16
2023-05-10T21:35:26.461Z,100225.81
2023-05-10T21:38:29.052Z,100223.19
2023-05-10T21:41:31.808Z,100223.09
2023-05-10T21:44:34.238Z,100226.72
2023-05-10T21:47:37.239Z,100230.19
2023-05-10T21:50:39.716Z,100221.06
2023-05-10T21:53:42.426Z,100220.25
2023-05-10T21:56:44.997Z,100200.72
2023-05-10T21:59:47.736Z,100232.88
2023-05-10T22:02:50.216Z,100223.78
2023-05-10T22:05:53.053Z,100223.63
2023-05-10T22:08:55.557Z,100231.75
2023-05-10T22:11:58.366Z,100228.22
2023-05-10T22:18:08.302Z,100230.28
2023-05-10T22:21:10.922Z,100229.31
2023-05-10T22:24:13.735Z,100225.69
2023-05-10T22:27:16.393Z,100226.66
2023-05-10T22:30:20.173Z,100221.34
2023-05-10T22:33:22.822Z,100220.72
2023-05-10T22:36:25.578Z,100230.66
2023-05-10T22:39:28.269Z,100225.31
2023-05-10T22:42:31.043Z,100222.63
2023-05-10T22:45:33.462Z,100224.47
2023-05-10T22:48:36.416Z,100230.81
2023-05-10T22:51:38.836Z,100225.47
2023-05-10T22:54:41.514Z,100222.72
2023-05-10T22:57:44.000Z,100231.66
2023-05-10T23:00:46.766Z,100221.81
2023-05-10T23:03:49.283Z,100231.56
2023-05-10T23:06:52.016Z,100225.34
2023-05-10T23:09:54.521Z,100231.66
2023-05-10T23:12:57.369Z,100234.31
2023-05-10T23:16:07.468Z,100232.63
2023-05-10T23:19:10.248Z,100233.59
2023-05-10T23:22:13.716Z,100236.41
2023-05-10T23:25:17.850Z,100233.84
2023-05-10T23:28:20.326Z,100234.91
2023-05-10T23:31:23.121Z,100204.88
2023-05-10T23:34:25.560Z,100231.75
2023-05-10T23:37:29.999Z,100227.44
2023-05-10T23:40:35.448Z,100230.37
2023-05-10T23:43:38.250Z,100229.66
2023-05-10T23:46:42.263Z,100223.50
2023-05-10T23:49:45.067Z,100233.34
2023-05-10T23:52:48.260Z,100230.53
2023-05-10T23:55:51.080Z,100227.88
2023-05-10T23:58:53.491Z,100231.47
